DGAA Airport Information

Runway Information
Runway 03 Length 11165 ft width 200 ft
Elevation 177 ft Threshold ft Heading 22
Runway 21 Length 11165 ft Width 200 ft
Elevation 197 ft Threshold 1349 ft Heading 202
Airport Frequencies
Type A Name ACCRA Frequency 119100 MHZ
Type A Name ACCRA Frequency 119500 MHZ
Type T Name ACCRASOUTH Frequency 123100 MHZ
Type T Name ACCRANORTH Frequency 126700 MHZ
Type T Name ACCRASOUTH Frequency 130900 MHZ
Type G Name ACCRA Frequency 121900 MHZ
Type T Name ACCRA Frequency 118600 MHZ
Airport Navaids
Type NDB Name Accra Frequency 409 KHZ
Type VOR-DME Name Accra Frequency 113100 KHZ
Airport Weather Information & NOTAM
METAR for:DGAA (Accra/Kotoka Intl, GA, GH)
Text:DGAA 200700Z 23008KT 5000 -RA BKN007 25/24 Q1014 NOSIG
Conditions at:0700 UTC 20 Jul 2024
Temperature: 25.0°C ( 77°F)
Dewpoint: 24.0°C ( 75°F) [RH = 94%]
Pressure (altimeter):29.94 inches Hg (1014.0 mb)
Winds:from the SW (230 degrees) at 9 MPH (8 knots; 4.1 m/s)
Visibility:3 sm (5 km)
Ceiling:700 feet AGL
Clouds:broken clouds at 700 feet AGL
Weather:-RA (light rain)